• Join FlightAware (Why Join?)
  • Login
  • US Flag 
07:25AM EDT


 

Airport Tracker/Info


-or-


 

Live Flight TrackerFlight Track Log ✈ UAL822 ✈ 04-May-2013 ✈ KIAD - KBOS

Flight Track Log - Related Links

Times and Time Zones

All times are in EDT time to prevent confusion due to time zone crossing. See the UAL822 flight status page for this flight to view local times or setup timezone preferences in your user account.

Time Position Orientation Groundspeed Altitude Reporting Facility
EDT Latitude Longitude Course Direction KTS MPH feet Rate Location/Type
05:24PM 38.9167 -77.5167 83° East 242 278 3,000  Level Potomac TRACON
05:25PM 38.9500 -77.6000 297° West 290 334 3,400 2,100 Climbing Potomac TRACON
05:26PM 39.0362 -76.9161 78° East  Level FlightAware Approximate
05:26PM 39.0167 -77.6000 360° North 277 319 7,300  Level Potomac TRACON
05:27PM 39.0593 -76.7777 78° East  Level FlightAware Approximate
05:27PM 39.0833 -77.5333 38° Northeast 278 320 9,900  Level Potomac TRACON
05:28PM 39.0791 -76.6418 57° Northeast  Level FlightAware Approximate
05:28PM 39.1167 -77.4333 67° East 310 357 10,000  Level Potomac TRACON
05:29PM 39.1027 -76.5043 83° East  Level FlightAware Approximate
05:30PM 39.1092 -77.1967 92° East 303 349 11,400  Level Washington Center
05:31PM 39.0939 -77.0839 100° East 309 356 14,100 2,460 Climbing Washington Center
05:32PM 39.1017 -76.9556 85° East 331 381 16,500 2,220 Climbing Washington Center
05:33PM 39.1114 -76.8275 84° East 342 394 18,700 1,980 Climbing Washington Center
05:34PM 39.1189 -76.6911 86° East 361 415 20,500 1,980 Climbing Washington Center
05:35PM 39.1283 -76.5547 85° East 376 433 22,700 1,200 Climbing Washington Center
05:36PM 39.1356 -76.4158 86° East 382 440 23,000 120 Climbing Washington Center
05:37PM 39.1447 -76.2794 85° East 387 445 23,000 -60 Level Washington Center
05:38PM 39.1622 -76.1539 80° East 387 445 22,900 120 Descending Washington Center
05:39PM 39.1772 -76.0200 82° East 387 445 23,300 960 Climbing Washington Center
05:40PM 39.2006 -75.8781 78° East 392 451 24,900 1,500 Climbing Washington Center
05:41PM 39.2739 -75.7739 48° Northeast 375 432 26,400 1,380 Climbing Washington Center
05:42PM 39.3550 -75.6694 45° Northeast 388 447 27,700 1,380 Climbing Washington Center
05:43PM 39.4386 -75.5619 45° Northeast 400 460 29,200 1,200 Climbing Washington Center
05:44PM 39.5217 -75.4544 45° Northeast 412 474 30,200 840 Climbing Washington Center
05:45PM 39.6092 -75.3383 46° Northeast 422 486 30,900 240 Climbing Washington Center
05:47PM 39.7756 -75.1033 47° Northeast 441 507 31,000  Climbing New York Center
05:48PM 39.8569 -74.9867 48° Northeast 441 507 30,900 -60 Descending New York Center
05:49PM 39.9403 -74.8697 47° Northeast 441 507 30,900  Level New York Center
05:50PM 40.0275 -74.7531 46° Northeast 446 513 30,900  Level New York Center
05:51PM 40.1044 -74.6325 50° Northeast 441 507 30,900  Level New York Center
05:52PM 40.1836 -74.5094 50° Northeast 436 502 30,900  Level New York Center
05:53PM 40.2517 -74.3933 52° Northeast 441 507 30,900  Level New York Center
05:54PM 40.3306 -74.2694 50° Northeast 441 507 30,900  Level New York Center
05:55PM 40.4033 -74.1369 54° Northeast 441 507 30,900  Level New York Center
05:56PM 40.4431 -73.9833 71° East 433 498 30,900 -300 Level New York Center
05:57PM 40.4847 -73.8272 71° East 438 504 30,300 -840 Descending New York Center
05:58PM 40.5772 -73.7056 45° Northeast 416 479 29,300 -1,320 Descending New York Center
06:00PM 40.7719 -73.5172 36° Northeast 407 468 26,100 -1,500 Descending Boston Center
06:01PM 40.8433 -73.4525 34° Northeast 396 456 24,500 -1,140 Descending Boston Center
06:02PM 40.9297 -73.3328 46° Northeast 376 433 23,900 -300 Descending Boston Center
06:03PM 41.0075 -73.2211 47° Northeast 370 426 24,000 -180 Climbing Boston Center
06:04PM 41.0728 -73.1175 50° Northeast 370 426 23,600 -540 Descending Boston Center
06:05PM 41.1236 -72.9939 61° Northeast 370 426 23,000 -300 Descending Boston Center
06:06PM 41.1722 -72.8675 63° Northeast 376 433 23,000  Level Boston Center
06:07PM 41.2206 -72.7408 63° Northeast 376 433 23,000  Level Boston Center
06:08PM 41.2708 -72.6142 62° Northeast 386 444 23,000 -60 Level Boston Center
06:09PM 41.3231 -72.4844 62° Northeast 392 451 22,900 -60 Descending Boston Center
06:10PM 41.3708 -72.3544 64° Northeast 386 444 22,900 -120 Level Boston Center
06:11PM 41.4167 -72.2408 62° Northeast 381 438 22,700 -1,320 Descending Boston Center
06:12PM 41.4642 -72.1161 63° Northeast 381 438 20,300 -2,460 Descending Boston Center
06:13PM 41.5178 -71.9828 62° Northeast 375 432 17,800 -2,100 Descending Boston Center
06:14PM 41.5569 -71.8742 64° Northeast 361 415 16,200 -1,860 Descending Boston Center
06:15PM 41.6042 -71.7489 63° Northeast 344 396 14,100 -1,980 Descending Boston Center
06:16PM 41.6392 -71.6539 64° Northeast 326 375 12,300 -1,500 Descending Boston Center
06:17PM 41.6819 -71.5367 64° Northeast 315 362 10,900 -660 Descending Boston Center
06:18PM 41.7247 -71.4275 62° Northeast 281 323 10,900  Level Boston Center
06:19PM 41.7658 -71.3547 53° Northeast 273 314 10,900  Level Boston Center
06:20PM 41.8214 -71.2783 46° Northeast 262 302 10,900 -600 Level Boston Center
06:21PM 41.8750 -71.2411 27° Northeast 262 302 9,700 -2,040 Descending Boston Center
06:22PM 41.9581 -71.2061 17° North 257 296 6,900 -2,100 Descending Boston Center
06:23PM 42.0142 -71.1769 21° North 244 281 5,600 -1,260 Descending Boston Center
06:24PM 42.0844 -71.1422 20° North 244 281 4,400 -960 Descending Boston Center
06:25PM 42.1333 -71.1167 21° North 223 257 3,900 -540 Descending KA90
06:26PM 42.1833 -71.0833 26° Northeast 205 236 3,500 -480 Descending KA90
06:27PM 42.2333 -71.0667 14° North 175 201 3,000 -900 Descending KA90
06:28PM 42.2667 -71.0500 20° North 148 170 1,800 -1,080 Descending KA90
06:29PM 42.3167 -71.0333 14° North 150 173 1,000 -840 Descending KA90
06:30PM 42.3500 -71.0167 20° North 134 154 200 -780 Descending KA90